Time;durP1;ratioP1;P1;durP2;ratioP2;P2;SDS_P1;SDS_P2;PMS_P1;PMS_P2;Temp;Humidity;BMP_temperature;BMP_pressure;BME280_temperature;BME280_humidity;BME280_pressure;Samples;Min_cycle;Max_cycle;Signal;HPM_P1;HPM_P2
2022/10/20 00:00:24;;;;;;;7.27;4.57;;;9.50;99.90;;;;;;5111720;28;20267;-65
2022/10/20 00:02:50;;;;;;;10.70;6.07;;;9.50;99.90;;;;;;5111881;28;20274;-65
2022/10/20 00:05:16;;;;;;;9.30;5.03;;;9.50;99.90;;;;;;5112372;28;20192;-65
2022/10/20 00:07:41;;;;;;;11.70;5.60;;;9.40;99.90;;;;;;5112094;28;20176;-65
2022/10/20 00:10:07;;;;;;;6.13;3.30;;;9.40;99.90;;;;;;5111940;28;20176;-65
2022/10/20 00:12:33;;;;;;;7.83;4.37;;;9.40;99.90;;;;;;5110496;28;20631;-65
2022/10/20 00:14:59;;;;;;;13.30;5.93;;;9.40;99.90;;;;;;5111674;28;20421;-65
2022/10/20 00:17:24;;;;;;;10.47;5.70;;;9.40;99.90;;;;;;5112220;28;20263;-65
2022/10/20 00:19:50;;;;;;;9.90;5.20;;;9.30;99.90;;;;;;5112161;28;20209;-65
2022/10/20 00:22:15;;;;;;;19.07;4.83;;;9.30;99.90;;;;;;5110398;28;20223;-65
2022/10/20 00:24:41;;;;;;;11.27;6.07;;;9.30;99.90;;;;;;5112078;28;20176;-65
2022/10/20 00:27:07;;;;;;;10.13;5.00;;;9.30;99.90;;;;;;5105326;28;20179;-65
2022/10/20 00:29:33;;;;;;;10.43;5.10;;;9.30;99.90;;;;;;5112112;28;20409;-65
2022/10/20 00:31:58;;;;;;;13.83;5.53;;;9.30;99.90;;;;;;5112130;28;20636;-65
2022/10/20 00:34:24;;;;;;;7.93;5.00;;;9.20;99.90;;;;;;5112094;28;20172;-65
2022/10/20 00:36:49;;;;;;;9.67;4.97;;;9.20;99.90;;;;;;5112041;28;20250;-65
2022/10/20 00:39:15;;;;;;;10.20;5.40;;;9.20;99.90;;;;;;5112013;28;20670;-65
2022/10/20 00:41:41;;;;;;;11.23;6.00;;;9.20;99.90;;;;;;5111668;28;20180;-65
2022/10/20 00:44:44;;;;;;;11.20;6.13;;;9.20;99.90;;;;;;5111243;28;20842;-65
2022/10/20 00:47:13;;;;;;;9.57;5.70;;;9.20;99.90;;;;;;5101102;28;20250;-65
2022/10/20 00:49:39;;;;;;;11.33;6.47;;;9.20;99.90;;;;;;5115382;28;20418;-65
2022/10/20 00:52:05;;;;;;;9.63;5.10;;;9.20;99.90;;;;;;5115236;28;20440;-66
2022/10/20 00:54:31;;;;;;;10.53;6.00;;;9.20;99.90;;;;;;5115260;28;20421;-66
2022/10/20 00:56:57;;;;;;;9.30;4.87;;;9.20;99.90;;;;;;5109802;28;20417;-66
2022/10/20 00:59:28;;;;;;;15.63;6.37;;;9.10;99.90;;;;;;5108694;28;20192;-66
2022/10/20 01:01:55;;;;;;;14.83;6.13;;;9.10;99.90;;;;;;5114613;28;20870;-66
2022/10/20 01:04:21;;;;;;;13.17;6.20;;;9.10;99.90;;;;;;5114878;28;20460;-66
2022/10/20 01:06:47;;;;;;;12.93;4.80;;;9.10;99.90;;;;;;5115280;28;20547;-65
2022/10/20 01:09:13;;;;;;;10.73;6.13;;;9.10;99.90;;;;;;5114893;28;20496;-66
2022/10/20 01:11:44;;;;;;;13.30;5.97;;;9.10;99.90;;;;;;5114592;28;20176;-66
2022/10/20 01:14:25;;;;;;;13.67;6.00;;;9.10;99.90;;;;;;5114383;28;20190;-66
2022/10/20 01:16:59;;;;;;;11.17;5.53;;;9.10;99.90;;;;;;5114924;28;20413;-66
2022/10/20 01:19:49;;;;;;;14.33;7.20;;;9.00;99.90;;;;;;5114698;28;20409;-66
2022/10/20 01:22:46;;;;;;;11.83;5.00;;;9.00;99.90;;;;;;5113172;27;20448;-65
2022/10/20 01:25:30;;;;;;;10.50;5.20;;;9.00;99.90;;;;;;5114644;28;20446;-66
2022/10/20 01:28:02;;;;;;;9.60;5.50;;;9.00;99.90;;;;;;5107339;28;20493;-65
2022/10/20 01:30:29;;;;;;;11.20;5.47;;;9.00;99.90;;;;;;5114230;28;20445;-66
2022/10/20 01:33:06;;;;;;;10.57;5.93;;;9.00;99.90;;;;;;5114235;28;20414;-66
2022/10/20 01:35:44;;;;;;;16.83;5.70;;;9.00;99.90;;;;;;5104388;28;20429;-66
2022/10/20 01:38:33;;;;;;;13.50;6.00;;;9.00;99.90;;;;;;5114230;28;20490;-66
2022/10/20 01:41:01;;;;;;;10.80;5.00;;;9.00;99.90;;;;;;5098179;28;20796;-66
2022/10/20 01:43:32;;;;;;;7.53;4.50;;;9.00;99.90;;;;;;5108061;28;20459;-66
2022/10/20 01:45:58;;;;;;;14.10;6.13;;;9.00;99.90;;;;;;5114469;28;20425;-66
2022/10/20 01:48:28;;;;;;;9.03;5.17;;;9.00;99.90;;;;;;5114300;28;20418;-66
2022/10/20 01:50:54;;;;;;;17.10;5.80;;;9.00;99.90;;;;;;5114883;28;20954;-66
2022/10/20 01:53:20;;;;;;;10.80;5.60;;;9.10;99.90;;;;;;5113652;28;20424;-66
2022/10/20 01:55:50;;;;;;;15.10;6.17;;;9.00;99.90;;;;;;5114087;28;20488;-67
2022/10/20 01:58:28;;;;;;;12.40;6.77;;;9.00;99.90;;;;;;5113397;28;20187;-67
2022/10/20 02:00:57;;;;;;;7.83;3.67;;;9.00;99.90;;;;;;5114162;28;20421;-65
2022/10/20 02:03:35;;;;;;;14.30;6.70;;;8.90;99.90;;;;;;5113712;28;20452;-65
2022/10/20 02:06:10;;;;;;;9.97;6.50;;;8.90;99.90;;;;;;5114182;28;20913;-65
2022/10/20 02:08:48;;;;;;;11.27;5.93;;;8.90;99.90;;;;;;5113706;28;20405;-65
2022/10/20 02:11:38;;;;;;;17.83;6.63;;;8.90;99.90;;;;;;5113846;28;20422;-65
2022/10/20 02:14:06;;;;;;;13.73;6.83;;;8.90;99.90;;;;;;5113929;28;20418;-65
2022/10/20 02:16:35;;;;;;;14.00;8.10;;;8.90;99.90;;;;;;5113734;28;20417;-65
2022/10/20 02:19:02;;;;;;;15.13;7.37;;;9.20;99.90;;;;;;5113661;28;20417;-65
2022/10/20 02:21:28;;;;;;;14.93;7.37;;;9.40;99.90;;;;;;5111899;28;20799;-65
2022/10/20 02:23:59;;;;;;;17.37;8.57;;;9.50;99.90;;;;;;5113325;28;20543;-65
2022/10/20 02:26:25;;;;;;;16.60;8.00;;;9.50;99.90;;;;;;5110117;28;20216;-65
2022/10/20 02:28:57;;;;;;;23.93;10.33;;;9.70;99.90;;;;;;5110419;28;20978;-65
2022/10/20 02:31:23;;;;;;;16.40;8.83;;;9.80;99.90;;;;;;5113368;28;20246;-65
2022/10/20 02:33:50;;;;;;;17.87;9.23;;;9.90;99.90;;;;;;5110898;28;20428;-65
2022/10/20 02:36:19;;;;;;;14.00;8.47;;;10.00;99.90;;;;;;5113679;28;20875;-65
2022/10/20 02:38:45;;;;;;;20.87;9.00;;;10.10;99.90;;;;;;5113847;28;20869;-65
2022/10/20 02:41:11;;;;;;;20.97;8.63;;;10.20;99.90;;;;;;5113690;28;20438;-65
2022/10/20 02:43:37;;;;;;;17.20;8.10;;;10.20;99.90;;;;;;5112490;28;20480;-65
2022/10/20 02:46:03;;;;;;;15.37;8.20;;;10.20;99.90;;;;;;5114035;28;20508;-65
2022/10/20 02:48:29;;;;;;;21.40;9.10;;;10.20;99.90;;;;;;5114181;28;20452;-65
2022/10/20 02:50:54;;;;;;;22.97;8.87;;;10.10;99.90;;;;;;5114566;28;20458;-65
2022/10/20 02:53:20;;;;;;;15.20;8.40;;;10.10;99.90;;;;;;5113811;28;20180;-65
2022/10/20 02:55:46;;;;;;;14.37;7.03;;;10.20;99.90;;;;;;5132880;28;20190;-65
2022/10/20 02:58:11;;;;;;;16.17;8.10;;;10.20;99.90;;;;;;5137178;28;20172;-65
2022/10/20 03:00:37;;;;;;;26.37;8.50;;;10.10;99.90;;;;;;5138616;28;20172;-64
2022/10/20 03:03:02;;;;;;;21.30;10.03;;;10.10;99.90;;;;;;5138854;28;20191;-65
2022/10/20 03:05:28;;;;;;;16.10;7.83;;;10.10;99.90;;;;;;5139325;28;20168;-64
2022/10/20 03:07:54;;;;;;;19.37;7.33;;;10.10;99.90;;;;;;5139678;28;20172;-65
2022/10/20 03:10:20;;;;;;;15.80;7.80;;;10.10;99.90;;;;;;5134208;28;20182;-67
2022/10/20 03:12:46;;;;;;;10.77;7.07;;;10.10;99.90;;;;;;5112657;27;20187;-66
2022/10/20 03:15:11;;;;;;;19.80;8.57;;;10.10;99.90;;;;;;5113606;28;20420;-65
2022/10/20 03:17:37;;;;;;;15.57;8.07;;;10.00;99.90;;;;;;5112518;28;20825;-65
2022/10/20 03:20:04;;;;;;;19.07;7.97;;;10.00;99.90;;;;;;5112843;28;20180;-65
2022/10/20 03:22:30;;;;;;;15.43;8.00;;;10.00;99.90;;;;;;5110979;28;20222;-65
2022/10/20 03:24:55;;;;;;;11.80;7.53;;;10.00;99.90;;;;;;5112656;28;20421;-65
2022/10/20 03:27:21;;;;;;;19.83;6.60;;;10.00;99.90;;;;;;5103513;28;20218;-65
2022/10/20 03:29:47;;;;;;;18.17;8.63;;;10.00;99.90;;;;;;5112664;28;20258;-64
2022/10/20 03:32:12;;;;;;;17.00;7.83;;;10.00;99.90;;;;;;5112030;28;20183;-65
2022/10/20 03:34:38;;;;;;;15.90;7.43;;;10.10;99.90;;;;;;5112691;28;20183;-65
2022/10/20 03:37:03;;;;;;;12.40;7.23;;;10.10;99.90;;;;;;5112595;28;20217;-65
2022/10/20 03:39:29;;;;;;;16.93;8.13;;;10.00;99.90;;;;;;5112365;28;20543;-65
2022/10/20 03:41:56;;;;;;;17.70;7.77;;;10.00;99.90;;;;;;5111630;28;20188;-65
2022/10/20 03:44:22;;;;;;;14.30;7.47;;;10.00;99.90;;;;;;5112638;28;20211;-65
2022/10/20 03:46:47;;;;;;;19.90;8.60;;;10.00;99.90;;;;;;5112060;28;20824;-65
2022/10/20 03:49:13;;;;;;;16.63;9.07;;;10.00;99.90;;;;;;5112479;28;20627;-65
2022/10/20 03:51:38;;;;;;;19.20;8.30;;;10.00;99.90;;;;;;5111837;28;20187;-64
2022/10/20 03:54:04;;;;;;;19.03;8.57;;;10.10;99.90;;;;;;5112138;28;20214;-65
2022/10/20 03:56:30;;;;;;;18.03;8.03;;;10.10;99.90;;;;;;5110894;28;20190;-65
2022/10/20 03:58:55;;;;;;;15.57;8.17;;;10.10;99.90;;;;;;5102404;28;20222;-65
2022/10/20 04:01:27;;;;;;;20.40;9.20;;;10.10;99.90;;;;;;5112150;28;20184;-65
2022/10/20 04:03:52;;;;;;;19.03;8.40;;;10.20;99.90;;;;;;5111860;28;20610;-65
2022/10/20 04:06:18;;;;;;;20.43;7.90;;;10.20;99.90;;;;;;5112134;28;20421;-65
2022/10/20 04:08:44;;;;;;;20.93;9.60;;;10.10;99.90;;;;;;5112080;28;20190;-65
2022/10/20 04:11:09;;;;;;;18.60;9.90;;;10.20;99.90;;;;;;5112452;28;20183;-65
2022/10/20 04:13:35;;;;;;;23.93;9.60;;;10.20;99.90;;;;;;5110657;28;20186;-65
2022/10/20 04:16:00;;;;;;;18.40;8.90;;;10.30;99.90;;;;;;5112002;28;20207;-65
2022/10/20 04:18:26;;;;;;;14.53;8.10;;;10.30;99.90;;;;;;5111969;28;20187;-65
2022/10/20 04:20:51;;;;;;;18.87;8.97;;;10.30;99.90;;;;;;5111159;28;20193;-65
2022/10/20 04:23:17;;;;;;;20.40;10.70;;;10.30;99.90;;;;;;5115430;27;20284;-65
2022/10/20 04:25:47;;;;;;;21.63;9.83;;;10.30;99.90;;;;;;5115847;28;20203;-65
2022/10/20 04:28:17;;;;;;;19.57;9.30;;;10.30;99.90;;;;;;5108035;28;20172;-65
2022/10/20 04:30:44;;;;;;;21.23;9.70;;;10.40;99.90;;;;;;5115761;28;20452;-65
2022/10/20 04:33:10;;;;;;;18.47;9.17;;;10.40;99.90;;;;;;5114847;28;20409;-65
2022/10/20 04:35:35;;;;;;;20.13;9.70;;;10.30;99.90;;;;;;5115669;28;20436;-65
2022/10/20 04:38:01;;;;;;;25.53;10.13;;;10.30;99.90;;;;;;5115555;28;20425;-65
2022/10/20 04:40:27;;;;;;;21.73;10.00;;;10.30;99.90;;;;;;5115599;28;20651;-65
2022/10/20 04:42:52;;;;;;;18.13;8.63;;;10.30;99.90;;;;;;5114249;28;20202;-65
2022/10/20 04:45:18;;;;;;;16.33;8.53;;;10.30;99.90;;;;;;5115489;28;20178;-65
2022/10/20 04:47:43;;;;;;;17.00;8.00;;;10.30;99.90;;;;;;5115137;28;20628;-65
2022/10/20 04:50:09;;;;;;;23.13;10.13;;;10.30;99.90;;;;;;5115584;28;20225;-65
2022/10/20 04:52:34;;;;;;;22.90;9.47;;;10.20;99.90;;;;;;5114789;28;20187;-65
2022/10/20 04:55:00;;;;;;;17.60;9.10;;;10.20;99.90;;;;;;5115371;27;20309;-67
2022/10/20 04:57:26;;;;;;;19.43;9.30;;;10.20;99.90;;;;;;5114904;28;20182;-67
2022/10/20 04:59:52;;;;;;;19.83;10.30;;;10.20;99.90;;;;;;5115587;28;20186;-66
2022/10/20 05:02:17;;;;;;;20.03;9.30;;;10.20;99.90;;;;;;5114209;28;20960;-66
2022/10/20 05:04:43;;;;;;;15.10;8.87;;;10.20;99.90;;;;;;5114958;28;20190;-66
2022/10/20 05:07:09;;;;;;;21.13;10.33;;;10.20;99.90;;;;;;5115000;28;20186;-68
2022/10/20 05:09:34;;;;;;;16.27;9.93;;;10.20;99.90;;;;;;5115027;28;20179;-65
2022/10/20 05:12:00;;;;;;;27.30;11.93;;;10.10;99.90;;;;;;5113784;28;20184;-65
2022/10/20 05:14:26;;;;;;;20.40;10.07;;;10.20;99.90;;;;;;5114997;28;20199;-65
2022/10/20 05:16:51;;;;;;;17.57;9.63;;;10.20;99.90;;;;;;5114643;28;20199;-65
2022/10/20 05:19:17;;;;;;;24.17;10.20;;;10.20;99.90;;;;;;5114740;28;20600;-65
2022/10/20 05:21:43;;;;;;;15.87;9.80;;;10.20;99.90;;;;;;5113128;28;20707;-67
2022/10/20 05:24:17;;;;;;;24.80;11.30;;;10.20;99.90;;;;;;5114892;28;20461;-64
2022/10/20 05:26:43;;;;;;;25.33;10.80;;;10.10;99.90;;;;;;5108401;28;20414;-64
2022/10/20 05:29:10;;;;;;;21.70;9.40;;;10.10;99.90;;;;;;5114563;28;20493;-65
2022/10/20 05:31:37;;;;;;;23.10;9.07;;;10.20;99.90;;;;;;5113594;28;20421;-65
2022/10/20 05:34:03;;;;;;;23.00;11.77;;;10.10;99.90;;;;;;5114509;27;20425;-65
2022/10/20 05:36:29;;;;;;;17.77;9.70;;;10.10;99.90;;;;;;5114678;28;20819;-65
2022/10/20 05:38:55;;;;;;;21.70;11.50;;;10.10;99.90;;;;;;5114538;28;20672;-66
2022/10/20 05:41:24;;;;;;;20.13;9.30;;;10.10;99.90;;;;;;5114577;28;20180;-65
2022/10/20 05:43:58;;;;;;;19.33;9.50;;;10.10;99.90;;;;;;5113489;28;20460;-66
2022/10/20 05:46:25;;;;;;;26.60;9.37;;;10.20;99.90;;;;;;5114495;28;20414;-65
2022/10/20 05:48:54;;;;;;;16.23;9.40;;;10.20;99.90;;;;;;5114154;28;20414;-65
2022/10/20 05:51:21;;;;;;;19.07;10.07;;;10.10;99.90;;;;;;5114221;28;20417;-67
2022/10/20 05:53:47;;;;;;;23.07;10.50;;;10.20;99.90;;;;;;5113524;28;20418;-66
2022/10/20 05:56:15;;;;;;;21.00;10.17;;;10.10;99.90;;;;;;5115595;27;20884;-65
2022/10/20 05:58:42;;;;;;;22.27;10.40;;;10.20;99.90;;;;;;5117683;27;20187;-65
2022/10/20 06:01:15;;;;;;;21.13;9.90;;;10.10;99.90;;;;;;5114149;28;20931;-65
2022/10/20 06:03:40;;;;;;;20.23;10.10;;;10.10;99.90;;;;;;5113764;28;21149;-65
2022/10/20 06:06:06;;;;;;;33.50;10.30;;;10.20;99.90;;;;;;5113935;28;20462;-65
2022/10/20 06:08:32;;;;;;;15.13;8.80;;;10.20;99.90;;;;;;5113970;28;20180;-66
2022/10/20 06:11:03;;;;;;;15.93;8.53;;;10.10;99.90;;;;;;5114090;28;20188;-65
2022/10/20 06:13:31;;;;;;;22.97;9.93;;;10.10;99.90;;;;;;5112960;28;20901;-65
2022/10/20 06:16:04;;;;;;;16.33;8.43;;;10.10;99.90;;;;;;5113903;28;20444;-65
2022/10/20 06:18:31;;;;;;;19.17;8.57;;;10.20;99.90;;;;;;5103116;28;21243;-66
2022/10/20 06:21:10;;;;;;;27.47;9.70;;;10.20;99.90;;;;;;5106037;28;20458;-66
2022/10/20 06:23:36;;;;;;;18.20;9.10;;;10.20;99.90;;;;;;5099849;28;20558;-65
2022/10/20 06:26:07;;;;;;;27.57;9.50;;;10.20;99.90;;;;;;5112676;28;20788;-65
2022/10/20 06:28:34;;;;;;;17.23;8.40;;;10.20;99.90;;;;;;5104880;28;20686;-65
2022/10/20 06:31:08;;;;;;;27.23;9.67;;;10.30;99.90;;;;;;5099805;28;20464;-65
2022/10/20 06:33:34;;;;;;;25.10;8.40;;;10.20;99.90;;;;;;5111384;27;20402;-66
2022/10/20 06:36:02;;;;;;;14.00;8.63;;;10.20;99.90;;;;;;5118303;27;20425;-65
2022/10/20 06:38:28;;;;;;;19.33;9.93;;;10.20;99.90;;;;;;5112623;28;20353;-65
2022/10/20 06:40:53;;;;;;;16.60;9.87;;;10.20;99.90;;;;;;5113037;28;20509;-66
2022/10/20 06:43:19;;;;;;;17.80;8.20;;;10.30;99.90;;;;;;5108874;28;20235;-66
2022/10/20 06:45:54;;;;;;;15.87;8.20;;;10.30;99.90;;;;;;5106266;28;20229;-67
2022/10/20 06:48:20;;;;;;;21.70;8.77;;;10.30;99.90;;;;;;5112482;28;20175;-66
2022/10/20 06:50:45;;;;;;;15.77;8.73;;;10.30;99.90;;;;;;5113320;28;20506;-66
2022/10/20 06:53:11;;;;;;;18.20;8.37;;;10.40;99.90;;;;;;5111977;28;20176;-66
2022/10/20 06:55:36;;;;;;;27.20;9.60;;;10.40;99.90;;;;;;5112861;28;20184;-66
2022/10/20 06:58:02;;;;;;;18.83;8.73;;;10.40;99.90;;;;;;5111951;28;20213;-66
2022/10/20 07:00:28;;;;;;;18.30;9.20;;;10.50;99.90;;;;;;5112347;28;20179;-66
2022/10/20 07:02:53;;;;;;;18.17;8.47;;;10.50;99.90;;;;;;5109012;28;20665;-66
2022/10/20 07:05:20;;;;;;;20.30;9.73;;;10.60;99.90;;;;;;5102075;28;20186;-67
2022/10/20 07:07:46;;;;;;;16.40;8.80;;;10.60;99.90;;;;;;5112279;28;20176;-66
2022/10/20 07:10:12;;;;;;;19.80;8.83;;;10.80;99.90;;;;;;5112273;28;20420;-66
2022/10/20 07:12:37;;;;;;;18.07;7.40;;;10.90;99.90;;;;;;5111373;28;20255;-66
2022/10/20 07:15:04;;;;;;;12.73;6.37;;;11.10;99.90;;;;;;5107245;28;20172;-67
2022/10/20 07:17:30;;;;;;;13.73;7.17;;;11.20;99.90;;;;;;5112746;28;20517;-67
2022/10/20 07:19:56;;;;;;;15.30;7.33;;;11.40;99.90;;;;;;5112225;28;20466;-66
2022/10/20 07:22:21;;;;;;;12.13;6.87;;;11.50;99.90;;;;;;5110708;28;20207;-66
2022/10/20 07:24:47;;;;;;;13.83;6.77;;;11.60;99.90;;;;;;5112289;28;20631;-67
2022/10/20 07:27:12;;;;;;;11.87;6.50;;;11.80;99.90;;;;;;5103948;28;20194;-66
2022/10/20 07:29:38;;;;;;;11.63;6.30;;;12.00;99.90;;;;;;5112152;28;20692;-67
2022/10/20 07:32:04;;;;;;;15.13;6.50;;;12.10;99.90;;;;;;5111702;28;20248;-67
2022/10/20 07:34:29;;;;;;;18.60;7.20;;;12.40;99.90;;;;;;5106051;28;20175;-67
2022/10/20 07:36:56;;;;;;;14.70;7.57;;;12.60;99.90;;;;;;5111273;28;20673;-67
2022/10/20 07:39:22;;;;;;;11.97;5.50;;;12.80;99.90;;;;;;5111888;28;20530;-67
2022/10/20 07:41:47;;;;;;;11.53;5.30;;;13.10;99.90;;;;;;5111303;28;20421;-67
2022/10/20 07:44:13;;;;;;;10.73;6.03;;;13.30;99.90;;;;;;5112232;28;20499;-67
2022/10/20 07:46:39;;;;;;;12.10;4.93;;;13.50;99.90;;;;;;5112438;28;20582;-67
2022/10/20 07:49:04;;;;;;;8.33;4.60;;;13.60;99.90;;;;;;5112418;28;20242;-67
2022/10/20 07:51:31;;;;;;;16.17;5.53;;;13.80;99.90;;;;;;5111404;28;20554;-67
2022/10/20 07:54:03;;;;;;;6.90;4.53;;;13.80;99.90;;;;;;5111931;28;20267;-67
2022/10/20 07:56:40;;;;;;;9.50;4.60;;;13.60;99.90;;;;;;5115443;28;20413;-67
2022/10/20 07:59:07;;;;;;;13.17;6.00;;;13.50;99.90;;;;;;5116159;28;20409;-67
2022/10/20 08:01:33;;;;;;;7.10;4.53;;;13.60;99.90;;;;;;5102194;28;21130;-67
2022/10/20 08:03:58;;;;;;;9.83;5.53;;;13.50;99.90;;;;;;5107387;28;20536;-67
2022/10/20 08:06:24;;;;;;;14.23;6.80;;;13.50;99.90;;;;;;5113580;28;20830;-67
2022/10/20 08:08:50;;;;;;;12.67;5.27;;;13.70;99.90;;;;;;5114162;28;20180;-67
2022/10/20 08:11:16;;;;;;;17.43;5.40;;;13.90;99.90;;;;;;5114928;28;20207;-67
2022/10/20 08:13:42;;;;;;;15.70;5.30;;;14.10;99.90;;;;;;5116436;28;20448;-66
2022/10/20 08:16:10;;;;;;;9.47;4.70;;;14.40;99.90;;;;;;5117057;28;20421;-67
2022/10/20 08:18:36;;;;;;;6.67;4.23;;;14.80;99.90;;;;;;5113944;28;20406;-67
2022/10/20 08:21:09;;;;;;;7.20;3.70;;;15.00;99.90;;;;;;5113112;28;20964;-66
2022/10/20 08:23:38;;;;;;;9.40;4.77;;;15.30;99.90;;;;;;5118435;28;20583;-67
2022/10/20 08:26:04;;;;;;;9.37;4.17;;;15.50;99.90;;;;;;5129565;28;20409;-66
2022/10/20 08:28:29;;;;;;;6.90;3.53;;;15.60;99.90;;;;;;5134882;27;20449;-69
2022/10/20 08:30:55;;;;;;;8.83;4.33;;;15.40;99.90;;;;;;5137850;28;20179;-67
2022/10/20 08:33:21;;;;;;;9.37;4.10;;;15.50;99.90;;;;;;5137631;28;20192;-68
2022/10/20 08:35:46;;;;;;;16.20;4.20;;;15.50;99.90;;;;;;5138440;28;20209;-66
2022/10/20 08:38:12;;;;;;;8.43;4.40;;;15.60;99.90;;;;;;5119789;28;20188;-68
2022/10/20 08:40:41;;;;;;;5.20;3.13;;;15.70;99.90;;;;;;5116530;28;20179;-67
2022/10/20 08:43:16;;;;;;;10.33;4.80;;;15.70;99.90;;;;;;5112745;28;20199;-67
2022/10/20 08:45:41;;;;;;;7.03;4.40;;;15.40;99.90;;;;;;5101232;28;20413;-67
2022/10/20 08:48:15;;;;;;;8.07;3.20;;;15.40;99.90;;;;;;5113274;28;20424;-67
2022/10/20 08:50:46;;;;;;;9.50;3.50;;;15.10;99.90;;;;;;5112817;28;20187;-67
2022/10/20 08:53:12;;;;;;;7.00;3.63;;;15.10;99.90;;;;;;5113131;28;20535;-67
2022/10/20 08:55:38;;;;;;;10.40;3.60;;;15.20;99.90;;;;;;5109118;28;20512;-67
2022/10/20 08:58:03;;;;;;;9.13;3.77;;;15.30;99.90;;;;;;5111245;28;20326;-67
2022/10/20 09:00:30;;;;;;;8.47;4.30;;;15.20;99.90;;;;;;5112721;28;21204;-66
2022/10/20 09:03:00;;;;;;;6.23;2.70;;;15.20;99.90;;;;;;5112471;28;20199;-66
2022/10/20 09:05:30;;;;;;;6.53;2.43;;;15.20;99.90;;;;;;5113248;28;20455;-67
2022/10/20 09:07:56;;;;;;;5.13;2.67;;;15.10;99.90;;;;;;5103111;28;20437;-66
2022/10/20 09:10:27;;;;;;;6.40;3.30;;;15.10;99.90;;;;;;5112821;28;20425;-66
2022/10/20 09:12:53;;;;;;;5.90;3.20;;;15.20;99.90;;;;;;5110958;28;20185;-66
2022/10/20 09:15:20;;;;;;;7.20;3.00;;;15.30;99.90;;;;;;5105462;28;20448;-66
2022/10/20 09:17:57;;;;;;;5.37;3.00;;;15.30;99.90;;;;;;5110502;28;20437;-66
2022/10/20 09:20:50;;;;;;;5.40;3.57;;;15.30;99.90;;;;;;5105301;28;20933;-66
2022/10/20 09:23:18;;;;;;;5.93;3.00;;;15.30;99.90;;;;;;5112491;28;20550;-66
2022/10/20 09:25:46;;;;;;;8.03;3.83;;;15.30;99.90;;;;;;5112618;28;20443;-66
2022/10/20 09:28:26;;;;;;;4.23;2.77;;;15.30;99.90;;;;;;5103590;28;20991;-66
2022/10/20 09:30:53;;;;;;;6.83;2.90;;;15.40;99.90;;;;;;5112314;28;20425;-66
2022/10/20 09:33:32;;;;;;;5.93;2.53;;;15.40;99.90;;;;;;5106902;27;20784;-66
2022/10/20 09:36:10;;;;;;;3.40;2.33;;;15.30;99.90;;;;;;5101764;28;20905;-66
2022/10/20 09:38:40;;;;;;;5.87;2.90;;;15.30;99.90;;;;;;5109906;28;20454;-66
2022/10/20 09:41:06;;;;;;;6.37;3.50;;;15.30;99.90;;;;;;5104395;28;20497;-66
2022/10/20 09:43:33;;;;;;;6.20;2.97;;;15.30;99.90;;;;;;5112527;27;20461;-66
2022/10/20 09:46:05;;;;;;;14.13;3.70;;;15.20;99.90;;;;;;5104312;28;20437;-66
2022/10/20 09:48:40;;;;;;;9.63;3.03;;;15.20;99.90;;;;;;5113575;28;20889;-66
2022/10/20 09:51:17;;;;;;;4.90;2.47;;;15.20;99.90;;;;;;5107497;28;20429;-66
2022/10/20 09:53:52;;;;;;;6.50;3.10;;;15.20;99.90;;;;;;5100664;28;20448;-66
2022/10/20 09:56:34;;;;;;;5.63;2.67;;;15.30;99.90;;;;;;5113702;28;20430;-66
2022/10/20 09:59:01;;;;;;;5.70;2.63;;;15.30;99.90;;;;;;5113489;28;20417;-66
2022/10/20 10:01:27;;;;;;;8.30;3.03;;;15.40;99.90;;;;;;5113524;28;20430;-66
2022/10/20 10:03:58;;;;;;;2.93;1.80;;;15.50;99.90;;;;;;5113093;28;20535;-66
2022/10/20 10:06:37;;;;;;;5.90;3.23;;;15.60;99.90;;;;;;5113331;28;20749;-66
2022/10/20 10:09:27;;;;;;;7.30;3.10;;;15.60;99.90;;;;;;5107681;28;20425;-65
2022/10/20 10:12:00;;;;;;;5.33;2.40;;;15.70;99.90;;;;;;5104303;28;20410;-65
2022/10/20 10:14:26;;;;;;;8.27;2.63;;;15.70;99.90;;;;;;5107404;28;20421;-66
2022/10/20 10:16:52;;;;;;;6.20;2.50;;;15.80;99.90;;;;;;5113156;28;20429;-66
2022/10/20 10:19:22;;;;;;;3.73;2.50;;;15.90;99.90;;;;;;5109735;28;20450;-65
2022/10/20 10:21:55;;;;;;;7.03;3.20;;;16.10;99.90;;;;;;5111905;28;20192;-66
2022/10/20 10:24:29;;;;;;;6.00;2.63;;;16.20;99.90;;;;;;5121064;27;20472;-65
2022/10/20 10:26:55;;;;;;;11.50;1.73;;;16.40;99.90;;;;;;5125316;27;20500;-66
2022/10/20 10:29:35;;;;;;;7.30;3.50;;;16.40;99.90;;;;;;5128171;27;20472;-65
2022/10/20 10:32:13;;;;;;;7.27;2.70;;;16.50;99.90;;;;;;5125725;27;20420;-66
2022/10/20 10:35:02;;;;;;;4.40;2.27;;;16.60;99.90;;;;;;5126746;27;20458;-66
2022/10/20 10:37:29;;;;;;;4.23;2.27;;;16.60;99.90;;;;;;5113834;28;20420;-66
2022/10/20 10:39:54;;;;;;;4.63;2.70;;;16.60;99.90;;;;;;5099090;28;20419;-66
2022/10/20 10:42:47;;;;;;;6.40;3.27;;;16.40;99.90;;;;;;5112026;28;20488;-66
2022/10/20 10:45:48;;;;;;;5.70;3.10;;;16.40;99.90;;;;;;5097590;28;20183;-66
2022/10/20 10:48:50;;;;;;;8.83;4.07;;;16.20;99.90;;;;;;5102905;28;20421;-66
2022/10/20 10:51:31;;;;;;;10.80;3.00;;;16.10;99.90;;;;;;5113110;28;20409;-66
2022/10/20 10:54:14;;;;;;;5.73;3.20;;;16.00;99.90;;;;;;5112636;28;20413;-66
2022/10/20 10:56:46;;;;;;;5.43;2.93;;;16.00;99.90;;;;;;5111248;28;20977;-66
2022/10/20 10:59:11;;;;;;;4.70;3.13;;;16.10;99.90;;;;;;5109917;28;21133;-66
2022/10/20 11:02:02;;;;;;;6.27;2.17;;;16.20;99.90;;;;;;5111744;28;20421;-66
2022/10/20 11:04:55;;;;;;;5.47;2.80;;;16.30;99.90;;;;;;5112795;28;20546;-66
2022/10/20 11:07:51;;;;;;;8.37;3.40;;;16.40;99.90;;;;;;5099113;28;20410;-66
2022/10/20 11:10:28;;;;;;;6.00;2.97;;;16.50;99.90;;;;;;5116761;27;20410;-66
2022/10/20 11:13:05;;;;;;;6.40;2.80;;;16.60;99.90;;;;;;5119828;27;20417;-66
2022/10/20 11:15:49;;;;;;;5.10;2.40;;;16.60;99.90;;;;;;5113371;27;20413;-66
2022/10/20 11:18:36;;;;;;;5.70;2.97;;;16.70;99.90;;;;;;5112203;28;20413;-67
2022/10/20 11:21:26;;;;;;;9.23;3.53;;;16.80;99.90;;;;;;5111861;28;20417;-67
2022/10/20 11:23:51;;;;;;;6.33;3.23;;;16.80;99.90;;;;;;5110904;28;20461;-68
2022/10/20 11:26:34;;;;;;;3.60;2.00;;;16.80;99.90;;;;;;5110033;28;20912;-68
2022/10/20 11:29:04;;;;;;;4.20;2.00;;;16.80;99.90;;;;;;5110139;28;20183;-67
2022/10/20 11:31:40;;;;;;;5.47;2.50;;;16.80;99.90;;;;;;5111693;28;20422;-68
2022/10/20 11:34:11;;;;;;;4.10;2.30;;;16.80;99.90;;;;;;5112380;28;20416;-67
2022/10/20 11:37:15;;;;;;;5.40;2.50;;;16.70;99.90;;;;;;5112442;28;20418;-67
2022/10/20 11:39:46;;;;;;;3.80;1.70;;;16.80;99.90;;;;;;5108862;28;20486;-66
2022/10/20 11:42:18;;;;;;;28.03;2.10;;;16.80;99.90;;;;;;5109518;28;20420;-67
2022/10/20 11:44:46;;;;;;;6.67;2.50;;;16.80;99.90;;;;;;5104500;28;20461;-67
2022/10/20 11:47:24;;;;;;;3.90;2.17;;;16.80;99.90;;;;;;5106836;28;20414;-67
2022/10/20 11:49:51;;;;;;;4.50;2.43;;;16.80;99.90;;;;;;5107564;28;20401;-67
2022/10/20 11:53:00;;;;;;;2.60;1.57;;;16.70;99.90;;;;;;5111739;28;20409;-66
2022/10/20 11:55:57;;;;;;;7.83;2.03;;;16.70;99.90;;;;;;5100207;28;20820;-67
2022/10/20 11:58:51;;;;;;;5.27;2.13;;;16.60;99.90;;;;;;5111055;28;20418;-67
2022/10/20 12:01:54;;;;;;;4.53;2.20;;;16.60;99.90;;;;;;5111943;28;20418;-67
2022/10/20 12:04:29;;;;;;;3.60;1.80;;;16.60;99.90;;;;;;5111566;28;20452;-67
2022/10/20 12:07:19;;;;;;;6.23;2.50;;;16.60;99.90;;;;;;5111743;28;20421;-66
2022/10/20 12:09:56;;;;;;;3.00;1.73;;;16.60;99.90;;;;;;5111562;28;20406;-66
2022/10/20 12:13:14;;;;;;;7.43;1.90;;;16.60;99.90;;;;;;5110669;28;20448;-66
2022/10/20 12:15:49;;;;;;;5.93;2.77;;;16.60;99.90;;;;;;5028875;28;20429;-67
2022/10/20 12:18:26;;;;;;;2.77;1.97;;;16.50;99.90;;;;;;5102894;28;20417;-66
2022/10/20 12:20:58;;;;;;;3.10;2.30;;;16.50;99.90;;;;;;5110828;28;20441;-66
2022/10/20 12:23:42;;;;;;;3.60;2.10;;;16.50;99.90;;;;;;5111220;28;20461;-67
2022/10/20 12:26:29;;;;;;;6.40;2.03;;;16.50;99.90;;;;;;5098094;28;20489;-67
2022/10/20 12:28:55;;;;;;;6.00;2.40;;;16.50;99.90;;;;;;5099174;28;20424;-67
2022/10/20 12:31:21;;;;;;;5.13;2.47;;;16.40;99.90;;;;;;5110568;28;20936;-67
2022/10/20 12:33:53;;;;;;;5.63;2.27;;;16.40;99.90;;;;;;5108732;28;20422;-67
2022/10/20 12:36:18;;;;;;;4.37;2.37;;;16.30;99.90;;;;;;5111765;28;20490;-68
2022/10/20 12:38:53;;;;;;;6.03;2.23;;;16.30;99.90;;;;;;5111224;28;20448;-66
2022/10/20 12:41:26;;;;;;;5.50;2.30;;;16.30;99.90;;;;;;5111864;28;20179;-67
2022/10/20 12:43:57;;;;;;;3.67;2.00;;;16.20;99.90;;;;;;5113784;28;20461;-67
2022/10/20 12:46:27;;;;;;;5.90;1.80;;;16.10;99.90;;;;;;5101457;28;20418;-67
2022/10/20 12:48:58;;;;;;;12.23;1.90;;;16.00;99.90;;;;;;5121407;27;20896;-68
2022/10/20 12:51:50;;;;;;;5.00;1.90;;;16.00;99.90;;;;;;5120188;27;20409;-66
2022/10/20 12:54:24;;;;;;;3.50;2.03;;;16.00;99.90;;;;;;5115289;28;21279;-66
2022/10/20 12:56:51;;;;;;;4.03;2.00;;;15.90;99.90;;;;;;5114739;28;20809;-67
2022/10/20 12:59:28;;;;;;;2.90;2.30;;;15.90;99.90;;;;;;5122080;27;20428;-66